Time;durP1;ratioP1;P1;durP2;ratioP2;P2;SDS_P1;SDS_P2;PMS_P1;PMS_P2;Temp;Humidity;BMP_temperature;BMP_pressure;BME280_temperature;BME280_humidity;BME280_pressure;Samples;Min_cycle;Max_cycle;Signal;HPM_P1;HPM_P2
2021/01/02 00:01:16;;;;;;;49.00;22.83;;;;;;;2.53;84.88;100021.16;5070421;28;20499;-76
2021/01/02 00:03:48;;;;;;;48.00;19.67;;;;;;;2.52;85.05;100014.13;5070455;28;20464;-78
2021/01/02 00:06:23;;;;;;;17.37;11.00;;;;;;;2.55;84.95;100023.56;5070353;28;20425;-77
2021/01/02 00:08:52;;;;;;;38.30;20.60;;;;;;;2.54;85.00;100016.56;5070442;28;20807;-78
2021/01/02 00:11:42;;;;;;;21.63;15.43;;;;;;;2.50;85.01;100016.31;5070231;28;20413;-79
2021/01/02 00:14:13;;;;;;;16.47;11.80;;;;;;;2.50;84.93;100037.06;5070298;28;20428;-78
2021/01/02 00:16:57;;;;;;;38.37;17.60;;;;;;;2.49;84.76;100020.06;5070241;28;20421;-76
2021/01/02 00:19:39;;;;;;;44.80;21.80;;;;;;;2.50;84.96;100026.28;5070202;28;20429;-78
2021/01/02 00:22:12;;;;;;;21.07;13.00;;;;;;;2.53;84.61;100020.34;5070084;28;20774;-77
2021/01/02 00:24:53;;;;;;;33.23;18.27;;;;;;;2.55;84.70;100026.28;5070287;28;20516;-77
2021/01/02 00:27:28;;;;;;;19.50;9.50;;;;;;;2.55;84.76;100020.88;5070058;28;21071;-77
2021/01/02 00:30:00;;;;;;;32.23;16.27;;;;;;;2.53;84.77;100028.44;5070147;28;20448;-76
2021/01/02 00:32:52;;;;;;;23.93;15.23;;;;;;;2.53;84.78;100031.13;5070426;28;20445;-77
2021/01/02 00:35:19;;;;;;;51.17;25.57;;;;;;;2.51;84.65;100025.19;5070211;28;20851;-77
2021/01/02 00:38:04;;;;;;;35.90;20.40;;;;;;;2.50;85.04;100024.38;5070826;28;20424;-76
2021/01/02 00:40:30;;;;;;;30.40;19.10;;;;;;;2.51;84.65;100033.28;5078171;28;20425;-78
2021/01/02 00:42:55;;;;;;;33.97;19.87;;;;;;;2.49;84.86;100027.34;5073894;28;20457;-76
2021/01/02 00:45:24;;;;;;;17.07;14.13;;;;;;;2.49;84.64;100027.34;5070872;28;20494;-76
2021/01/02 00:47:51;;;;;;;24.00;15.07;;;;;;;2.45;84.96;100034.34;5070212;28;20170;-76
2021/01/02 00:50:20;;;;;;;12.97;11.17;;;;;;;2.44;84.87;100022.75;5070222;28;20457;-77
2021/01/02 00:52:45;;;;;;;19.83;11.27;;;;;;;2.43;85.20;100034.59;5070130;28;20504;-76
2021/01/02 00:55:50;;;;;;;30.00;19.23;;;;;;;2.42;84.88;100041.09;5070059;28;20520;-76
2021/01/02 00:58:33;;;;;;;21.47;15.80;;;;;;;2.39;85.29;100041.63;5070192;28;20173;-78
2021/01/02 01:01:04;;;;;;;11.50;9.00;;;;;;;2.38;85.23;100046.22;5070084;28;20413;-75
2021/01/02 01:03:50;;;;;;;26.80;13.67;;;;;;;2.36;85.47;100044.84;5069975;28;20456;-76
2021/01/02 01:06:16;;;;;;;32.40;18.20;;;;;;;2.35;85.42;100046.75;5073729;28;20427;-76
2021/01/02 01:08:43;;;;;;;31.27;16.00;;;;;;;2.36;85.54;100047.56;5073519;28;20424;-77
2021/01/02 01:11:10;;;;;;;29.90;15.97;;;;;;;2.35;85.42;100051.31;5073521;28;20467;-76
2021/01/02 01:13:37;;;;;;;38.63;21.60;;;;;;;2.35;85.52;100041.34;5073465;28;20413;-77
2021/01/02 01:16:03;;;;;;;13.20;10.97;;;;;;;2.37;85.53;100060.75;5073483;28;20452;-77
2021/01/02 01:19:01;;;;;;;18.40;10.03;;;;;;;2.35;85.78;100049.44;5073453;28;21086;-78
2021/01/02 01:21:29;;;;;;;28.87;16.40;;;;;;;2.32;85.95;100055.38;5070267;28;20216;-78
2021/01/02 01:24:22;;;;;;;13.00;9.07;;;;;;;2.32;85.86;100049.97;5073215;28;20544;-77
2021/01/02 01:27:22;;;;;;;15.83;10.87;;;;;;;2.31;86.15;100061.00;5073194;28;20416;-77
2021/01/02 01:29:47;;;;;;;29.87;15.60;;;;;;;2.28;85.83;100062.34;5073310;28;20429;-77
2021/01/02 01:32:16;;;;;;;34.93;18.50;;;;;;;2.28;86.04;100065.03;5073205;28;20421;-76
2021/01/02 01:34:45;;;;;;;25.23;15.40;;;;;;;2.28;86.20;100061.53;5073132;28;20221;-76
2021/01/02 01:37:15;;;;;;;20.23;12.20;;;;;;;2.27;86.32;100063.44;5072848;28;20782;-77
2021/01/02 01:39:49;;;;;;;22.03;11.47;;;;;;;2.28;86.28;100072.31;5073249;28;20424;-77
2021/01/02 01:42:17;;;;;;;40.80;20.63;;;;;;;2.27;86.32;100071.50;5072966;28;20420;-76
2021/01/02 01:44:55;;;;;;;16.93;11.47;;;;;;;2.24;86.20;100073.94;5073032;28;20420;-77
2021/01/02 01:47:37;;;;;;;51.10;23.40;;;;;;;2.21;86.42;100061.81;5072842;28;20452;-77
2021/01/02 01:50:21;;;;;;;45.07;24.27;;;;;;;2.18;86.65;100073.13;5072854;28;20443;-78
2021/01/02 01:53:20;;;;;;;40.87;22.20;;;;;;;2.16;86.60;100069.03;5073307;28;20417;-76
2021/01/02 01:55:57;;;;;;;28.53;15.07;;;;;;;2.07;86.84;100058.81;5072804;28;20496;-77
2021/01/02 01:58:42;;;;;;;50.97;22.17;;;;;;;2.05;87.13;100057.44;5072607;28;20424;-76
2021/01/02 02:01:08;;;;;;;54.03;26.73;;;;;;;2.05;87.26;100065.53;5072489;28;20409;-76
2021/01/02 02:03:44;;;;;;;47.50;26.57;;;;;;;2.00;87.35;100054.72;5072458;28;20531;-76
2021/01/02 02:06:29;;;;;;;41.83;24.23;;;;;;;1.94;87.46;100063.88;5072459;28;20261;-77
2021/01/02 02:09:04;;;;;;;46.13;23.13;;;;;;;1.90;87.54;100062.78;5072472;28;20447;-76
2021/01/02 02:11:31;;;;;;;47.57;23.27;;;;;;;1.88;87.67;100064.91;5072419;28;20409;-77
2021/01/02 02:14:08;;;;;;;46.30;20.73;;;;;;;1.85;87.71;100068.13;5072354;28;20428;-76
2021/01/02 02:16:43;;;;;;;51.90;24.23;;;;;;;1.83;88.01;100067.59;5071188;28;20896;-77
2021/01/02 02:19:38;;;;;;;38.70;20.07;;;;;;;1.76;88.05;100059.75;5072217;28;20428;-77
2021/01/02 02:22:07;;;;;;;25.97;11.53;;;;;;;1.77;88.10;100058.69;5072179;28;20416;-77
2021/01/02 02:24:37;;;;;;;30.23;17.70;;;;;;;1.73;88.19;100062.94;5071865;28;20464;-78
2021/01/02 02:27:02;;;;;;;35.47;19.07;;;;;;;1.72;88.29;100072.91;5071983;28;20420;-78
2021/01/02 02:29:38;;;;;;;64.93;29.07;;;;;;;1.69;88.33;100076.13;5072061;28;20411;-77
2021/01/02 02:32:08;;;;;;;20.93;11.87;;;;;;;1.70;88.54;100074.25;5071907;28;20198;-77
2021/01/02 02:34:36;;;;;;;23.50;13.80;;;;;;;1.69;88.53;100072.63;5071925;28;20780;-77
2021/01/02 02:37:03;;;;;;;33.67;18.67;;;;;;;1.68;88.64;100071.00;5070340;28;20794;-75
2021/01/02 02:39:28;;;;;;;54.93;24.37;;;;;;;1.71;88.60;100074.00;5071981;28;20413;-77
2021/01/02 02:42:02;;;;;;;53.63;27.17;;;;;;;1.73;88.46;100082.59;5071923;28;20409;-77
2021/01/02 02:44:36;;;;;;;15.23;10.30;;;;;;;1.73;88.61;100081.81;5071885;28;20202;-77
2021/01/02 02:47:02;;;;;;;50.73;24.07;;;;;;;1.76;88.42;100079.41;5071746;28;20481;-78
2021/01/02 02:49:34;;;;;;;27.20;15.90;;;;;;;1.79;88.32;100088.84;5071642;28;20413;-77
2021/01/02 02:52:19;;;;;;;34.40;17.23;;;;;;;1.78;88.50;100082.66;5071537;28;20178;-78
2021/01/02 02:54:44;;;;;;;26.03;12.93;;;;;;;1.84;88.58;100083.47;5071609;28;20442;-77
2021/01/02 02:57:15;;;;;;;24.77;14.67;;;;;;;1.84;88.34;100083.47;5071280;28;20421;-78
2021/01/02 02:59:40;;;;;;;15.97;11.30;;;;;;;1.87;88.46;100076.75;5071827;28;20232;-77
2021/01/02 03:02:06;;;;;;;37.67;19.10;;;;;;;1.88;88.49;100089.13;5071077;28;20436;-78
2021/01/02 03:04:33;;;;;;;26.50;14.97;;;;;;;1.88;88.43;100084.59;5071125;28;20596;-76
2021/01/02 03:07:03;;;;;;;40.30;19.97;;;;;;;1.88;88.70;100087.28;5069892;28;20607;-77
2021/01/02 03:09:30;;;;;;;53.03;27.30;;;;;;;1.89;88.82;100080.81;5071492;28;20417;-78
2021/01/02 03:11:55;;;;;;;28.00;17.10;;;;;;;1.91;88.76;100085.94;5071252;28;20993;-78
2021/01/02 03:14:20;;;;;;;36.97;20.13;;;;;;;1.92;89.01;100076.78;5070453;28;20421;-77
2021/01/02 03:16:46;;;;;;;21.50;11.63;;;;;;;1.97;88.64;100092.97;5070430;28;20224;-76
2021/01/02 03:19:11;;;;;;;25.00;13.40;;;;;;;1.94;88.92;100088.09;5071107;28;20179;-77
2021/01/02 03:21:36;;;;;;;33.83;19.07;;;;;;;1.97;88.86;100091.09;5071370;28;20170;-76
2021/01/02 03:24:06;;;;;;;11.30;9.33;;;;;;;1.98;88.82;100090.00;5071287;28;20237;-77
2021/01/02 03:26:31;;;;;;;28.37;14.13;;;;;;;1.99;88.87;100093.50;5070879;28;20232;-76
2021/01/02 03:28:57;;;;;;;20.63;14.00;;;;;;;2.00;88.89;100085.16;5070871;28;20417;-76
2021/01/02 03:31:22;;;;;;;37.83;19.53;;;;;;;2.01;88.47;100092.16;5070867;28;20236;-77
2021/01/02 03:33:48;;;;;;;17.77;10.53;;;;;;;1.98;88.64;100094.59;5070854;28;20182;-79
2021/01/02 03:36:14;;;;;;;39.47;19.90;;;;;;;1.99;88.72;100102.41;5070978;28;20666;-77
2021/01/02 03:38:40;;;;;;;20.53;12.93;;;;;;;1.96;88.88;100099.44;5070787;28;20221;-76
2021/01/02 03:41:05;;;;;;;53.60;25.33;;;;;;;1.96;88.76;100096.72;5070761;28;20170;-77
2021/01/02 03:43:31;;;;;;;53.10;29.40;;;;;;;1.93;88.83;100089.19;5070419;28;20473;-77
2021/01/02 03:45:56;;;;;;;43.93;22.77;;;;;;;1.90;88.61;100095.09;5070724;28;20174;-77
2021/01/02 03:48:22;;;;;;;46.97;24.90;;;;;;;1.87;88.54;100095.59;5070562;28;20266;-76
2021/01/02 03:50:47;;;;;;;63.20;31.73;;;;;;;1.84;88.54;100094.25;5070974;28;20513;-77
2021/01/02 03:53:13;;;;;;;20.13;14.27;;;;;;;1.83;88.43;100099.91;5070784;28;20182;-77
2021/01/02 03:55:40;;;;;;;50.10;25.93;;;;;;;1.78;88.67;100093.44;5070762;28;20182;-76
2021/01/02 03:58:06;;;;;;;25.00;11.83;;;;;;;1.77;88.41;100097.19;5070452;28;20174;-77
2021/01/02 04:00:31;;;;;;;54.03;27.47;;;;;;;1.75;88.32;100098.53;5070380;28;20759;-77
2021/01/02 04:02:57;;;;;;;53.20;27.70;;;;;;;1.78;88.14;100104.19;5070517;28;20222;-77
2021/01/02 04:05:23;;;;;;;54.33;29.87;;;;;;;1.78;88.12;100095.31;5070473;28;20603;-77
2021/01/02 04:07:48;;;;;;;44.17;22.10;;;;;;;1.70;88.11;100099.28;5070562;28;20505;-78
2021/01/02 04:10:13;;;;;;;44.10;25.30;;;;;;;1.67;88.13;100096.31;5070397;28;20188;-76
2021/01/02 04:12:39;;;;;;;39.37;19.20;;;;;;;1.68;87.95;100098.75;5070926;28;20189;-77
2021/01/02 04:15:05;;;;;;;27.27;16.20;;;;;;;1.65;87.98;100101.16;5070736;28;20220;-77
2021/01/02 04:17:31;;;;;;;26.77;17.23;;;;;;;1.62;87.78;100102.50;5070274;28;20451;-79
2021/01/02 04:19:56;;;;;;;35.03;21.03;;;;;;;1.61;88.00;100100.88;5067968;28;20885;-77
2021/01/02 04:22:21;;;;;;;28.63;18.03;;;;;;;1.64;87.84;100108.44;5066935;28;20232;-78
2021/01/02 04:24:47;;;;;;;36.00;20.17;;;;;;;1.71;87.74;100100.09;5063046;28;20191;-77
2021/01/02 04:27:12;;;;;;;46.83;24.13;;;;;;;1.74;87.77;100100.41;5050308;28;20183;-77
2021/01/02 04:29:37;;;;;;;32.17;20.07;;;;;;;1.74;87.66;100099.59;5066810;28;20183;-79
2021/01/02 04:32:05;;;;;;;48.57;25.13;;;;;;;1.74;87.56;100100.41;5070196;28;20178;-77
2021/01/02 04:34:30;;;;;;;30.23;17.43;;;;;;;1.74;87.85;100108.50;5070180;28;20178;-77
2021/01/02 04:36:55;;;;;;;24.93;16.33;;;;;;;1.74;87.84;100105.00;5068905;28;20959;-76
2021/01/02 04:39:21;;;;;;;19.87;12.40;;;;;;;1.72;88.19;100107.09;5071387;28;20210;-78
2021/01/02 04:41:46;;;;;;;43.43;24.47;;;;;;;1.75;88.01;100106.63;5074173;28;20598;-76
2021/01/02 04:44:12;;;;;;;22.83;14.93;;;;;;;1.76;87.68;100100.97;5074107;28;20198;-77
2021/01/02 04:46:38;;;;;;;24.77;11.90;;;;;;;1.81;87.54;100104.75;5073804;28;20546;-77
2021/01/02 04:49:04;;;;;;;31.00;16.93;;;;;;;1.86;87.57;100112.84;5073976;28;20245;-78
2021/01/02 04:51:30;;;;;;;31.20;18.93;;;;;;;1.90;87.58;100109.38;5073945;28;20509;-79
2021/01/02 04:54:04;;;;;;;37.07;22.73;;;;;;;1.94;87.62;100109.66;5074239;28;20915;-77
2021/01/02 04:56:38;;;;;;;37.70;20.50;;;;;;;2.00;87.07;100109.41;5073785;28;20170;-77
2021/01/02 04:59:11;;;;;;;37.33;22.43;;;;;;;2.00;87.30;100106.72;5073812;28;20914;-78
2021/01/02 05:01:41;;;;;;;42.47;23.63;;;;;;;2.01;87.32;100105.63;5073341;28;20428;-78
2021/01/02 05:04:09;;;;;;;42.13;26.83;;;;;;;1.99;87.03;100110.47;5073587;28;20476;-76
2021/01/02 05:06:35;;;;;;;51.77;23.97;;;;;;;1.99;87.23;100104.28;5073636;28;20421;-77
2021/01/02 05:09:03;;;;;;;38.07;21.87;;;;;;;2.00;87.03;100108.59;5073507;28;20408;-77
2021/01/02 05:11:35;;;;;;;31.80;20.00;;;;;;;1.97;86.88;100106.44;5073497;28;20421;-76
2021/01/02 05:14:01;;;;;;;31.40;18.40;;;;;;;1.92;86.90;100103.72;5073656;28;20401;-78
2021/01/02 05:19:11;;;;;;;22.30;14.63;;;;;;;1.84;87.07;100104.22;5073539;28;20277;-78
2021/01/02 05:21:42;;;;;;;35.13;21.03;;;;;;;1.83;87.21;100105.28;5073306;28;20393;-77
2021/01/02 05:24:22;;;;;;;34.73;18.43;;;;;;;1.77;87.62;100105.28;5073350;28;20550;-77
2021/01/02 05:26:57;;;;;;;38.67;21.93;;;;;;;1.74;87.83;100097.72;5073195;28;20420;-77
2021/01/02 05:29:24;;;;;;;34.77;24.30;;;;;;;1.72;87.70;100099.03;5071936;28;20492;-77
2021/01/02 05:31:51;;;;;;;36.37;22.43;;;;;;;1.70;87.87;100103.88;5072962;28;20440;-77
2021/01/02 05:34:19;;;;;;;10.93;9.23;;;;;;;1.69;87.62;100107.63;5072905;28;20498;-77
2021/01/02 05:36:45;;;;;;;35.63;22.67;;;;;;;1.69;88.02;100104.94;5072668;28;20421;-78
2021/01/02 05:39:16;;;;;;;20.93;10.53;;;;;;;1.70;87.65;100103.88;5071667;28;20833;-77
2021/01/02 05:41:53;;;;;;;18.43;9.90;;;;;;;1.73;87.65;100103.34;5072785;28;20421;-77
2021/01/02 05:44:20;;;;;;;44.40;22.03;;;;;;;1.75;87.38;100110.13;5072753;28;20464;-78
2021/01/02 05:46:51;;;;;;;37.57;21.93;;;;;;;1.67;87.53;100109.78;5072114;28;20781;-78
2021/01/02 05:49:40;;;;;;;31.10;18.07;;;;;;;1.68;87.38;100106.03;5073003;28;20760;-76
2021/01/02 05:52:10;;;;;;;38.10;12.37;;;;;;;1.61;87.51;100114.34;5072976;28;20397;-77
2021/01/02 05:54:40;;;;;;;42.37;21.37;;;;;;;1.61;87.80;100114.34;5072820;28;20440;-76
2021/01/02 05:57:06;;;;;;;29.80;16.60;;;;;;;1.63;87.78;100124.84;5072767;28;20463;-78
2021/01/02 05:59:35;;;;;;;12.40;8.87;;;;;;;1.60;87.72;100117.28;5072670;28;20421;-77
2021/01/02 06:02:19;;;;;;;23.97;15.20;;;;;;;1.59;87.89;100119.19;5072756;28;20167;-78
2021/01/02 06:04:56;;;;;;;42.20;22.30;;;;;;;1.59;87.88;100131.81;5072628;28;20456;-76
2021/01/02 06:07:22;;;;;;;13.77;10.90;;;;;;;1.57;87.92;100126.69;5072971;28;20408;-77
2021/01/02 06:09:48;;;;;;;38.33;21.57;;;;;;;1.57;88.45;100131.25;5072561;28;20417;-76
2021/01/02 06:12:28;;;;;;;17.17;11.53;;;;;;;1.53;88.36;100122.91;5072480;28;20171;-77
2021/01/02 06:14:55;;;;;;;25.27;14.90;;;;;;;1.58;88.59;100133.69;5072481;28;20170;-76
2021/01/02 06:17:33;;;;;;;19.47;11.20;;;;;;;1.57;87.89;100139.31;5072409;28;20421;-76
2021/01/02 06:20:08;;;;;;;36.30;21.13;;;;;;;1.54;88.11;100142.53;5072267;28;20778;-77
2021/01/02 06:22:35;;;;;;;30.43;17.17;;;;;;;1.50;88.21;100136.88;5072146;28;20424;-76
2021/01/02 06:25:03;;;;;;;20.77;12.23;;;;;;;1.49;88.51;100135.25;5072557;28;20416;-77
2021/01/02 06:27:29;;;;;;;22.77;12.70;;;;;;;1.54;88.47;100139.84;5071948;28;20768;-77
2021/01/02 06:29:56;;;;;;;25.03;14.60;;;;;;;1.54;88.67;100143.34;5072163;28;20466;-78
2021/01/02 06:32:24;;;;;;;20.70;12.90;;;;;;;1.61;88.52;100141.25;5072037;28;20254;-78
2021/01/02 06:35:07;;;;;;;39.50;20.37;;;;;;;1.63;88.51;100146.38;5072407;28;20575;-77
2021/01/02 06:37:48;;;;;;;41.67;21.73;;;;;;;1.66;88.35;100149.38;5072302;28;20682;-77
2021/01/02 06:40:47;;;;;;;48.40;22.50;;;;;;;1.68;88.59;100155.28;5072302;28;20931;-77
2021/01/02 06:43:20;;;;;;;16.03;10.30;;;;;;;1.70;88.23;100152.34;5049086;28;20478;-76
2021/01/02 06:45:50;;;;;;;30.20;16.77;;;;;;;1.73;88.16;100157.19;5072374;28;20409;-76
2021/01/02 06:48:16;;;;;;;38.63;15.37;;;;;;;1.79;88.28;100158.88;5079501;28;20405;-76
2021/01/02 06:50:44;;;;;;;14.43;9.93;;;;;;;1.79;87.91;100165.06;5073690;28;20471;-76
2021/01/02 06:53:32;;;;;;;44.37;24.77;;;;;;;1.86;87.87;100164.00;5072027;28;20174;-76
2021/01/02 06:56:05;;;;;;;17.40;10.93;;;;;;;1.89;87.87;100171.59;5071765;28;20932;-77
2021/01/02 06:58:38;;;;;;;40.03;23.27;;;;;;;1.93;87.76;100170.00;5072053;28;20773;-76
2021/01/02 07:01:08;;;;;;;40.90;20.57;;;;;;;1.93;87.64;100172.69;5071852;28;20409;-76
2021/01/02 07:03:39;;;;;;;42.83;23.60;;;;;;;1.97;87.56;100181.88;5070943;28;20559;-76
2021/01/02 07:06:26;;;;;;;43.80;23.30;;;;;;;2.00;87.76;100182.16;5071801;28;20505;-76
2021/01/02 07:09:11;;;;;;;13.30;8.37;;;;;;;2.03;87.09;100178.94;5071680;28;20639;-76
2021/01/02 07:11:43;;;;;;;16.50;12.83;;;;;;;2.05;87.06;100176.81;5071441;28;20431;-76
2021/01/02 07:14:17;;;;;;;35.77;19.77;;;;;;;2.05;86.85;100187.56;5071174;28;20420;-77
2021/01/02 07:16:49;;;;;;;22.40;14.60;;;;;;;2.05;86.88;100182.19;5071310;28;20389;-76
2021/01/02 07:19:26;;;;;;;40.17;20.63;;;;;;;2.04;87.17;100179.75;5071101;28;20839;-77
2021/01/02 07:22:14;;;;;;;32.33;16.30;;;;;;;2.04;87.24;100187.84;5071178;28;20427;-76
2021/01/02 07:24:52;;;;;;;20.70;13.93;;;;;;;2.05;87.08;100186.78;5070914;28;20460;-76
2021/01/02 07:27:23;;;;;;;29.70;15.77;;;;;;;2.08;86.70;100183.53;5071040;28;20412;-77
2021/01/02 07:29:58;;;;;;;10.90;9.07;;;;;;;2.08;86.94;100188.94;5070955;28;20432;-75
2021/01/02 07:32:38;;;;;;;15.87;11.70;;;;;;;2.07;87.03;100185.44;5071008;28;20807;-76
2021/01/02 07:35:11;;;;;;;30.17;18.17;;;;;;;2.11;86.87;100201.88;5070892;28;20600;-76
2021/01/02 07:37:38;;;;;;;13.40;8.67;;;;;;;2.12;86.84;100202.69;5071077;28;20412;-77
2021/01/02 07:40:11;;;;;;;20.37;11.53;;;;;;;2.14;86.64;100198.66;5070910;28;20409;-78
2021/01/02 07:42:39;;;;;;;10.73;9.27;;;;;;;2.16;86.68;100190.31;5070759;28;20437;-76
2021/01/02 07:45:10;;;;;;;26.63;15.73;;;;;;;2.17;86.70;100192.78;5070830;28;20747;-76
2021/01/02 07:47:37;;;;;;;24.33;15.13;;;;;;;2.18;86.65;100191.69;5070484;28;20447;-77
2021/01/02 07:50:08;;;;;;;12.13;10.30;;;;;;;2.22;86.41;100200.88;5070697;28;20474;-76
2021/01/02 07:52:34;;;;;;;24.77;13.43;;;;;;;2.23;86.49;100204.38;5070721;28;20474;-77
2021/01/02 07:55:09;;;;;;;17.33;10.83;;;;;;;2.24;86.59;100212.19;5070867;28;20417;-76
2021/01/02 07:57:35;;;;;;;25.60;16.07;;;;;;;2.26;86.53;100199.25;5070607;28;20252;-76
2021/01/02 08:00:00;;;;;;;22.53;13.00;;;;;;;2.26;86.44;100198.44;5070505;28;20504;-76
2021/01/02 08:02:26;;;;;;;17.00;12.67;;;;;;;2.28;86.33;100202.50;5070508;28;20235;-76
2021/01/02 08:04:53;;;;;;;15.70;11.87;;;;;;;2.29;86.37;100209.50;5070760;28;20174;-76
2021/01/02 08:07:19;;;;;;;17.30;11.80;;;;;;;2.32;86.13;100221.69;5070524;28;20179;-76
2021/01/02 08:09:46;;;;;;;13.80;10.47;;;;;;;2.33;86.34;100223.31;5070554;28;20745;-78
2021/01/02 08:12:13;;;;;;;26.97;16.27;;;;;;;2.32;86.33;100227.88;5070585;28;20421;-76
2021/01/02 08:14:44;;;;;;;18.07;12.93;;;;;;;2.33;86.24;100231.38;5072460;28;20421;-76
2021/01/02 08:17:11;;;;;;;36.23;19.30;;;;;;;2.33;86.16;100226.00;5074468;28;20428;-76
2021/01/02 08:19:45;;;;;;;41.17;23.60;;;;;;;2.33;86.25;100226.00;5074439;28;20992;-76
2021/01/02 08:22:11;;;;;;;37.30;21.77;;;;;;;2.35;86.30;100230.03;5074636;28;20657;-77
2021/01/02 08:24:38;;;;;;;48.63;24.90;;;;;;;2.37;86.41;100227.88;5074328;28;20484;-76
2021/01/02 08:27:04;;;;;;;39.43;22.33;;;;;;;2.37;86.22;100227.88;5074179;28;20178;-76
2021/01/02 08:29:33;;;;;;;39.57;22.00;;;;;;;2.43;86.08;100233.28;5074517;28;20455;-76
2021/01/02 08:32:09;;;;;;;15.87;9.57;;;;;;;2.44;85.84;100233.03;5074644;28;20515;-75
2021/01/02 08:34:35;;;;;;;13.93;11.23;;;;;;;2.44;85.76;100230.34;5074356;28;20413;-76
2021/01/02 08:37:04;;;;;;;39.13;21.57;;;;;;;2.46;85.98;100238.16;5074101;28;20424;-75
2021/01/02 08:39:29;;;;;;;13.13;9.73;;;;;;;2.46;85.45;100233.59;5074071;28;20916;-75
2021/01/02 08:41:58;;;;;;;28.97;14.20;;;;;;;2.49;85.45;100232.25;5074184;28;20611;-77
2021/01/02 08:44:25;;;;;;;40.97;20.80;;;;;;;2.50;85.80;100240.09;5074038;28;20584;-80
2021/01/02 08:46:51;;;;;;;10.37;7.73;;;;;;;2.51;85.12;100238.19;5073902;28;20417;-77
2021/01/02 08:49:27;;;;;;;22.47;13.37;;;;;;;2.54;85.15;100243.06;5073840;28;20508;-76
2021/01/02 08:52:32;;;;;;;26.37;16.67;;;;;;;2.58;85.10;100249.53;5074369;28;20174;-77
2021/01/02 08:55:08;;;;;;;31.57;18.93;;;;;;;2.63;84.66;100247.69;5073530;28;20515;-78
2021/01/02 08:57:50;;;;;;;33.70;18.33;;;;;;;2.68;84.31;100261.19;5073804;28;20474;-77
2021/01/02 09:00:21;;;;;;;38.33;23.30;;;;;;;2.72;84.43;100269.56;5073694;28;20424;-77
2021/01/02 09:02:59;;;;;;;31.90;22.77;;;;;;;2.77;84.71;100266.09;5073681;28;20416;-79
2021/01/02 09:05:39;;;;;;;43.03;23.53;;;;;;;2.83;84.70;100265.03;5073584;28;20432;-77
2021/01/02 09:08:09;;;;;;;32.93;20.50;;;;;;;3.00;83.55;100276.41;5073645;28;20537;-77
2021/01/02 09:10:42;;;;;;;34.80;22.73;;;;;;;3.05;83.13;100279.13;5073431;28;20413;-74
2021/01/02 09:13:19;;;;;;;31.97;22.00;;;;;;;3.08;83.29;100277.78;5073618;28;20401;-78
2021/01/02 09:16:13;;;;;;;38.63;23.60;;;;;;;3.06;83.94;100275.38;5073560;28;20397;-76
2021/01/02 09:18:40;;;;;;;40.47;22.93;;;;;;;2.99;83.96;100278.28;5073439;28;20428;-77
2021/01/02 09:21:06;;;;;;;41.50;23.47;;;;;;;2.99;84.52;100280.19;5073330;28;20782;-78
2021/01/02 09:23:35;;;;;;;36.23;21.10;;;;;;;2.99;84.01;100275.59;5073383;28;20460;-78
2021/01/02 09:26:02;;;;;;;39.67;22.83;;;;;;;3.01;83.93;100275.31;5073098;28;20194;-77
2021/01/02 09:28:27;;;;;;;31.40;16.90;;;;;;;3.03;83.47;100277.75;5071622;28;20432;-77
2021/01/02 09:30:53;;;;;;;39.00;20.33;;;;;;;2.99;83.30;100280.19;5073155;28;20429;-78
2021/01/02 09:33:19;;;;;;;27.60;15.20;;;;;;;2.97;83.31;100280.44;5073032;28;20284;-77
2021/01/02 09:35:46;;;;;;;38.27;22.03;;;;;;;2.99;83.25;100286.38;5072975;28;20170;-76
2021/01/02 09:38:13;;;;;;;31.33;19.80;;;;;;;3.03;82.93;100286.66;5073036;28;20190;-77
2021/01/02 09:40:41;;;;;;;27.00;17.13;;;;;;;3.02;83.09;100286.94;5072979;28;20413;-77
2021/01/02 09:43:10;;;;;;;22.90;12.93;;;;;;;3.05;82.71;100292.63;5073090;28;20449;-77
2021/01/02 09:45:35;;;;;;;36.80;20.47;;;;;;;3.05;82.40;100289.13;5072985;28;20417;-75
2021/01/02 09:48:00;;;;;;;8.10;7.30;;;;;;;3.08;82.51;100286.69;5073380;28;20416;-78
2021/01/02 09:50:26;;;;;;;9.87;8.27;;;;;;;3.10;82.45;100289.94;5071030;28;20178;-79
2021/01/02 09:52:52;;;;;;;31.73;20.70;;;;;;;3.11;83.01;100288.06;5069873;28;20186;-82
2021/01/02 09:55:18;;;;;;;32.13;20.23;;;;;;;3.17;83.06;100278.88;5072713;28;20548;-79
2021/01/02 09:57:48;;;;;;;27.53;19.43;;;;;;;3.21;82.85;100285.38;5072671;28;20228;-81
2021/01/02 10:00:14;;;;;;;31.57;20.77;;;;;;;3.25;83.13;100279.19;5072163;28;20642;-78
2021/01/02 10:02:40;;;;;;;26.93;16.20;;;;;;;3.28;82.22;100280.53;5072208;28;20822;-79
2021/01/02 10:05:08;;;;;;;37.30;21.50;;;;;;;3.25;82.32;100284.56;5073339;28;20499;-82
2021/01/02 10:07:34;;;;;;;32.50;21.37;;;;;;;3.25;82.69;100284.56;5072455;28;20174;-78
2021/01/02 10:09:59;;;;;;;24.63;13.90;;;;;;;3.22;82.34;100287.81;5071710;28;20425;-78
2021/01/02 10:12:25;;;;;;;28.57;17.53;;;;;;;3.20;82.76;100287.28;5072637;28;20170;-80
2021/01/02 10:14:50;;;;;;;31.00;21.73;;;;;;;3.17;82.59;100295.88;5072257;28;20582;-80
2021/01/02 10:17:16;;;;;;;32.53;19.03;;;;;;;3.14;82.44;100292.91;5072284;28;20170;-81
2021/01/02 10:19:44;;;;;;;36.90;22.10;;;;;;;3.10;82.94;100291.81;5072011;28;20266;-81
2021/01/02 10:22:09;;;;;;;28.77;14.90;;;;;;;3.09;83.05;100292.91;5072403;28;20417;-80
2021/01/02 10:24:35;;;;;;;19.37;12.57;;;;;;;3.11;83.23;100296.16;5072257;28;20952;-80
2021/01/02 10:27:01;;;;;;;24.03;12.27;;;;;;;3.13;83.74;100294.00;5072054;28;20163;-80
2021/01/02 10:29:26;;;;;;;24.57;15.70;;;;;;;3.23;83.04;100288.63;5072048;28;20224;-79
2021/01/02 10:31:52;;;;;;;18.97;11.10;;;;;;;3.28;82.68;100296.72;5072047;28;20421;-76
2021/01/02 10:34:17;;;;;;;13.10;9.47;;;;;;;3.39;83.02;100292.97;5072243;28;20179;-78
2021/01/02 10:36:46;;;;;;;29.80;18.70;;;;;;;3.51;82.39;100290.84;5071039;28;20171;-77
2021/01/02 10:39:12;;;;;;;32.40;18.53;;;;;;;3.73;82.42;100287.06;5072003;28;20175;-77
2021/01/02 10:41:38;;;;;;;39.70;21.77;;;;;;;3.75;81.59;100280.31;5072005;28;20304;-76
2021/01/02 10:44:03;;;;;;;30.67;20.17;;;;;;;3.72;81.40;100286.25;5071716;28;20551;-77
2021/01/02 10:46:29;;;;;;;35.63;22.10;;;;;;;3.70;81.10;100288.41;5070411;28;20219;-80
2021/01/02 10:48:54;;;;;;;24.83;17.03;;;;;;;3.73;81.85;100277.06;5071690;28;20175;-79
2021/01/02 10:51:20;;;;;;;28.90;18.80;;;;;;;3.77;82.25;100286.28;5071844;28;20178;-77
2021/01/02 10:53:46;;;;;;;33.67;21.03;;;;;;;3.75;81.73;100276.78;5071495;28;20170;-79
2021/01/02 10:56:14;;;;;;;32.97;21.63;;;;;;;3.79;81.51;100276.00;5071354;28;20265;-80
2021/01/02 10:58:40;;;;;;;12.60;8.27;;;;;;;3.79;81.41;100278.69;5071617;28;20171;-76
2021/01/02 11:01:06;;;;;;;19.23;13.17;;;;;;;3.70;80.96;100274.91;5071447;28;20478;-75
2021/01/02 11:03:33;;;;;;;28.47;20.53;;;;;;;3.66;81.62;100273.03;5071834;28;20201;-76
2021/01/02 11:06:03;;;;;;;13.77;10.87;;;;;;;3.68;81.26;100273.56;5071348;28;20171;-77
2021/01/02 11:08:29;;;;;;;22.33;15.53;;;;;;;3.62;81.20;100275.47;5071352;28;20927;-77
2021/01/02 11:10:54;;;;;;;25.13;16.97;;;;;;;3.61;81.75;100268.41;5071661;28;20414;-77
2021/01/02 11:13:19;;;;;;;27.30;19.80;;;;;;;3.67;81.76;100272.75;5071275;28;20480;-75
2021/01/02 11:15:46;;;;;;;10.87;7.10;;;;;;;3.74;81.16;100267.06;5071217;28;20171;-75
2021/01/02 11:18:12;;;;;;;26.60;16.87;;;;;;;3.75;80.94;100271.38;5070870;28;20190;-78
2021/01/02 11:20:37;;;;;;;30.93;19.13;;;;;;;3.78;80.91;100274.38;5071128;28;20421;-74
2021/01/02 11:23:02;;;;;;;25.73;19.60;;;;;;;3.87;80.96;100264.63;5070969;28;20293;-76
2021/01/02 11:25:28;;;;;;;29.30;19.87;;;;;;;3.88;80.70;100262.72;5070996;28;20174;-77
2021/01/02 11:28:20;;;;;;;20.00;10.83;;;;;;;3.96;80.59;100264.91;5067338;27;20548;-78
2021/01/02 11:30:46;;;;;;;20.27;13.87;;;;;;;3.89;80.70;100264.34;5068020;28;20444;-78
2021/01/02 11:33:11;;;;;;;22.13;17.80;;;;;;;3.88;80.88;100260.84;5067801;28;20549;-77
2021/01/02 11:35:36;;;;;;;23.30;17.13;;;;;;;3.92;80.46;100263.84;5067660;28;20261;-77